sensor_id;sensor_type;location;lat;lon;timestamp;temperature;humidity
21602;DHT22;10963;50.934;4.668;2023-07-13T00:00:20;18.30;99.90
21602;DHT22;10963;50.934;4.668;2023-07-13T00:02:48;18.20;99.90
21602;DHT22;10963;50.934;4.668;2023-07-13T00:05:14;18.20;99.90
21602;DHT22;10963;50.934;4.668;2023-07-13T00:07:42;18.20;99.90
21602;DHT22;10963;50.934;4.668;2023-07-13T00:10:10;18.20;99.90
21602;DHT22;10963;50.934;4.668;2023-07-13T00:12:40;18.10;99.90
21602;DHT22;10963;50.934;4.668;2023-07-13T00:15:17;18.10;99.90
21602;DHT22;10963;50.934;4.668;2023-07-13T00:17:54;18.10;99.90
21602;DHT22;10963;50.934;4.668;2023-07-13T00:20:22;18.10;99.90
21602;DHT22;10963;50.934;4.668;2023-07-13T00:22:49;18.10;99.90
21602;DHT22;10963;50.934;4.668;2023-07-13T00:25:18;18.00;99.90
21602;DHT22;10963;50.934;4.668;2023-07-13T00:27:43;18.00;99.90
21602;DHT22;10963;50.934;4.668;2023-07-13T00:30:10;18.00;99.90
21602;DHT22;10963;50.934;4.668;2023-07-13T00:32:39;18.00;99.90
21602;DHT22;10963;50.934;4.668;2023-07-13T00:35:07;18.00;99.90
21602;DHT22;10963;50.934;4.668;2023-07-13T00:37:33;17.90;99.90
21602;DHT22;10963;50.934;4.668;2023-07-13T00:40:04;17.80;99.90
21602;DHT22;10963;50.934;4.668;2023-07-13T00:42:33;17.80;99.90
21602;DHT22;10963;50.934;4.668;2023-07-13T00:47:40;17.80;99.90
21602;DHT22;10963;50.934;4.668;2023-07-13T00:50:13;17.90;99.90
21602;DHT22;10963;50.934;4.668;2023-07-13T00:52:45;17.90;99.90
21602;DHT22;10963;50.934;4.668;2023-07-13T00:55:15;17.90;99.90
21602;DHT22;10963;50.934;4.668;2023-07-13T00:57:44;17.90;99.90
21602;DHT22;10963;50.934;4.668;2023-07-13T01:00:13;17.80;99.90
21602;DHT22;10963;50.934;4.668;2023-07-13T01:02:47;17.80;99.90
21602;DHT22;10963;50.934;4.668;2023-07-13T01:05:19;17.80;99.90
21602;DHT22;10963;50.934;4.668;2023-07-13T01:07:48;17.80;99.90
21602;DHT22;10963;50.934;4.668;2023-07-13T01:10:14;17.80;99.90
21602;DHT22;10963;50.934;4.668;2023-07-13T01:12:44;17.70;99.90
21602;DHT22;10963;50.934;4.668;2023-07-13T01:18:03;17.70;99.90
21602;DHT22;10963;50.934;4.668;2023-07-13T01:20:29;17.50;99.90
21602;DHT22;10963;50.934;4.668;2023-07-13T01:22:57;17.50;99.90
21602;DHT22;10963;50.934;4.668;2023-07-13T01:25:22;17.50;99.90
21602;DHT22;10963;50.934;4.668;2023-07-13T01:27:49;17.60;99.90
21602;DHT22;10963;50.934;4.668;2023-07-13T01:30:16;17.50;99.90
21602;DHT22;10963;50.934;4.668;2023-07-13T01:32:42;17.50;99.90
21602;DHT22;10963;50.934;4.668;2023-07-13T01:35:08;17.40;99.90
21602;DHT22;10963;50.934;4.668;2023-07-13T01:37:34;17.40;99.90
21602;DHT22;10963;50.934;4.668;2023-07-13T01:40:04;17.50;99.90
21602;DHT22;10963;50.934;4.668;2023-07-13T01:42:34;17.40;99.90
21602;DHT22;10963;50.934;4.668;2023-07-13T01:44:59;17.50;99.90
21602;DHT22;10963;50.934;4.668;2023-07-13T01:47:25;17.40;99.90
21602;DHT22;10963;50.934;4.668;2023-07-13T01:49:51;17.20;99.90
21602;DHT22;10963;50.934;4.668;2023-07-13T01:52:20;17.20;99.90
21602;DHT22;10963;50.934;4.668;2023-07-13T01:54:45;17.10;99.90
21602;DHT22;10963;50.934;4.668;2023-07-13T01:57:15;17.10;99.90
21602;DHT22;10963;50.934;4.668;2023-07-13T01:59:41;17.00;99.90
21602;DHT22;10963;50.934;4.668;2023-07-13T02:02:09;16.90;99.90
21602;DHT22;10963;50.934;4.668;2023-07-13T02:04:37;16.90;99.90
21602;DHT22;10963;50.934;4.668;2023-07-13T02:07:05;16.90;99.90
21602;DHT22;10963;50.934;4.668;2023-07-13T02:09:33;16.80;99.90
21602;DHT22;10963;50.934;4.668;2023-07-13T02:11:59;16.90;99.90
21602;DHT22;10963;50.934;4.668;2023-07-13T02:14:24;17.00;99.90
21602;DHT22;10963;50.934;4.668;2023-07-13T02:16:50;17.00;99.90
21602;DHT22;10963;50.934;4.668;2023-07-13T02:19:16;17.10;99.90
21602;DHT22;10963;50.934;4.668;2023-07-13T02:21:41;17.20;99.90
21602;DHT22;10963;50.934;4.668;2023-07-13T02:24:11;17.20;99.90
21602;DHT22;10963;50.934;4.668;2023-07-13T02:26:45;17.20;99.90
21602;DHT22;10963;50.934;4.668;2023-07-13T02:29:14;17.40;99.90
21602;DHT22;10963;50.934;4.668;2023-07-13T02:31:42;17.40;99.90
21602;DHT22;10963;50.934;4.668;2023-07-13T02:34:12;17.50;99.90
21602;DHT22;10963;50.934;4.668;2023-07-13T02:36:41;17.50;99.90
21602;DHT22;10963;50.934;4.668;2023-07-13T02:39:09;17.50;99.90
21602;DHT22;10963;50.934;4.668;2023-07-13T02:41:39;17.50;99.90
21602;DHT22;10963;50.934;4.668;2023-07-13T02:44:04;17.50;99.90
21602;DHT22;10963;50.934;4.668;2023-07-13T02:46:32;17.50;99.90
21602;DHT22;10963;50.934;4.668;2023-07-13T02:49:00;17.50;99.90
21602;DHT22;10963;50.934;4.668;2023-07-13T02:51:26;17.40;99.90
21602;DHT22;10963;50.934;4.668;2023-07-13T02:53:55;17.50;99.90
21602;DHT22;10963;50.934;4.668;2023-07-13T02:56:25;17.50;99.90
21602;DHT22;10963;50.934;4.668;2023-07-13T02:58:52;17.50;99.90
21602;DHT22;10963;50.934;4.668;2023-07-13T03:01:20;17.60;99.90
21602;DHT22;10963;50.934;4.668;2023-07-13T03:03:53;17.60;99.90
21602;DHT22;10963;50.934;4.668;2023-07-13T03:06:21;17.60;99.90
21602;DHT22;10963;50.934;4.668;2023-07-13T03:08:48;17.50;99.90
21602;DHT22;10963;50.934;4.668;2023-07-13T03:11:18;17.60;99.90
21602;DHT22;10963;50.934;4.668;2023-07-13T03:13:47;17.70;99.90
21602;DHT22;10963;50.934;4.668;2023-07-13T03:16:14;17.80;99.90
21602;DHT22;10963;50.934;4.668;2023-07-13T03:18:47;17.90;99.90
21602;DHT22;10963;50.934;4.668;2023-07-13T03:21:13;17.80;99.90
21602;DHT22;10963;50.934;4.668;2023-07-13T03:23:38;17.80;99.90
21602;DHT22;10963;50.934;4.668;2023-07-13T03:26:18;17.70;99.90
21602;DHT22;10963;50.934;4.668;2023-07-13T03:28:46;17.70;99.90
21602;DHT22;10963;50.934;4.668;2023-07-13T03:31:18;17.70;99.90
21602;DHT22;10963;50.934;4.668;2023-07-13T03:33:47;17.60;99.90
21602;DHT22;10963;50.934;4.668;2023-07-13T03:36:21;17.60;99.90
21602;DHT22;10963;50.934;4.668;2023-07-13T03:38:54;17.80;99.90
21602;DHT22;10963;50.934;4.668;2023-07-13T03:41:23;17.70;99.90
21602;DHT22;10963;50.934;4.668;2023-07-13T03:43:51;17.70;99.90
21602;DHT22;10963;50.934;4.668;2023-07-13T03:46:19;17.70;99.90
21602;DHT22;10963;50.934;4.668;2023-07-13T03:48:46;17.50;99.90
21602;DHT22;10963;50.934;4.668;2023-07-13T03:51:14;17.40;99.90
21602;DHT22;10963;50.934;4.668;2023-07-13T03:53:44;17.50;99.90
21602;DHT22;10963;50.934;4.668;2023-07-13T03:56:13;17.50;99.90
21602;DHT22;10963;50.934;4.668;2023-07-13T03:58:43;17.60;99.90
21602;DHT22;10963;50.934;4.668;2023-07-13T04:01:13;17.50;99.90
21602;DHT22;10963;50.934;4.668;2023-07-13T04:03:41;17.50;99.90
21602;DHT22;10963;50.934;4.668;2023-07-13T04:06:08;17.50;99.90
21602;DHT22;10963;50.934;4.668;2023-07-13T04:08:35;17.60;99.90
21602;DHT22;10963;50.934;4.668;2023-07-13T04:11:05;17.60;99.90
21602;DHT22;10963;50.934;4.668;2023-07-13T04:13:33;17.70;99.90
21602;DHT22;10963;50.934;4.668;2023-07-13T04:16:01;17.80;99.90
21602;DHT22;10963;50.934;4.668;2023-07-13T04:18:27;17.90;99.90
21602;DHT22;10963;50.934;4.668;2023-07-13T04:20:52;17.80;99.90
21602;DHT22;10963;50.934;4.668;2023-07-13T04:23:20;17.70;99.90
21602;DHT22;10963;50.934;4.668;2023-07-13T04:25:51;17.80;99.90
21602;DHT22;10963;50.934;4.668;2023-07-13T04:28:21;17.80;99.90
21602;DHT22;10963;50.934;4.668;2023-07-13T04:30:50;17.90;99.90
21602;DHT22;10963;50.934;4.668;2023-07-13T04:33:18;17.80;99.90
21602;DHT22;10963;50.934;4.668;2023-07-13T04:35:48;17.80;99.90
21602;DHT22;10963;50.934;4.668;2023-07-13T04:38:19;17.70;99.90
21602;DHT22;10963;50.934;4.668;2023-07-13T04:40:50;17.70;99.90
21602;DHT22;10963;50.934;4.668;2023-07-13T04:43:21;17.90;99.90
21602;DHT22;10963;50.934;4.668;2023-07-13T04:45:52;18.00;99.90
21602;DHT22;10963;50.934;4.668;2023-07-13T04:48:19;18.10;99.90
21602;DHT22;10963;50.934;4.668;2023-07-13T04:50:45;18.20;99.90
21602;DHT22;10963;50.934;4.668;2023-07-13T04:53:12;18.30;99.90
21602;DHT22;10963;50.934;4.668;2023-07-13T04:55:42;18.30;99.90
21602;DHT22;10963;50.934;4.668;2023-07-13T04:58:11;18.30;99.90
21602;DHT22;10963;50.934;4.668;2023-07-13T05:00:37;18.40;99.90
21602;DHT22;10963;50.934;4.668;2023-07-13T05:03:02;18.40;99.90
21602;DHT22;10963;50.934;4.668;2023-07-13T05:05:31;18.40;99.90
21602;DHT22;10963;50.934;4.668;2023-07-13T05:07:57;18.50;99.90
21602;DHT22;10963;50.934;4.668;2023-07-13T05:10:23;18.50;99.90
21602;DHT22;10963;50.934;4.668;2023-07-13T05:12:51;18.60;99.90
21602;DHT22;10963;50.934;4.668;2023-07-13T05:15:21;18.60;99.90
21602;DHT22;10963;50.934;4.668;2023-07-13T05:17:51;18.50;99.90
21602;DHT22;10963;50.934;4.668;2023-07-13T05:20:21;18.60;99.90
21602;DHT22;10963;50.934;4.668;2023-07-13T05:22:47;18.70;99.90
21602;DHT22;10963;50.934;4.668;2023-07-13T05:25:13;18.80;99.90
21602;DHT22;10963;50.934;4.668;2023-07-13T05:27:39;19.10;99.90
21602;DHT22;10963;50.934;4.668;2023-07-13T05:30:08;18.90;99.90
21602;DHT22;10963;50.934;4.668;2023-07-13T05:32:36;18.90;99.90
21602;DHT22;10963;50.934;4.668;2023-07-13T05:35:04;19.10;99.90
21602;DHT22;10963;50.934;4.668;2023-07-13T05:37:30;19.20;99.90
21602;DHT22;10963;50.934;4.668;2023-07-13T05:39:56;19.10;99.90
21602;DHT22;10963;50.934;4.668;2023-07-13T05:42:22;19.10;99.90
21602;DHT22;10963;50.934;4.668;2023-07-13T05:44:47;19.20;99.90
21602;DHT22;10963;50.934;4.668;2023-07-13T05:47:15;19.30;99.90
21602;DHT22;10963;50.934;4.668;2023-07-13T05:49:41;19.30;99.90
21602;DHT22;10963;50.934;4.668;2023-07-13T05:52:07;19.50;99.90
21602;DHT22;10963;50.934;4.668;2023-07-13T05:54:33;19.50;99.90
21602;DHT22;10963;50.934;4.668;2023-07-13T05:57:01;19.50;99.90
21602;DHT22;10963;50.934;4.668;2023-07-13T05:59:27;19.30;99.90
21602;DHT22;10963;50.934;4.668;2023-07-13T06:01:55;19.40;99.90
21602;DHT22;10963;50.934;4.668;2023-07-13T06:04:23;19.40;99.90
21602;DHT22;10963;50.934;4.668;2023-07-13T06:06:48;19.50;99.90
21602;DHT22;10963;50.934;4.668;2023-07-13T06:09:16;19.60;99.90
21602;DHT22;10963;50.934;4.668;2023-07-13T06:11:47;19.40;99.90
21602;DHT22;10963;50.934;4.668;2023-07-13T06:14:12;19.20;99.90
21602;DHT22;10963;50.934;4.668;2023-07-13T06:16:39;19.30;99.90
21602;DHT22;10963;50.934;4.668;2023-07-13T06:19:11;19.60;99.90
21602;DHT22;10963;50.934;4.668;2023-07-13T06:21:36;19.80;99.90
21602;DHT22;10963;50.934;4.668;2023-07-13T06:24:02;20.00;99.90
21602;DHT22;10963;50.934;4.668;2023-07-13T06:26:30;20.00;99.90
21602;DHT22;10963;50.934;4.668;2023-07-13T06:28:57;19.90;99.90
21602;DHT22;10963;50.934;4.668;2023-07-13T06:31:25;20.00;99.90
21602;DHT22;10963;50.934;4.668;2023-07-13T06:33:53;20.30;99.90
21602;DHT22;10963;50.934;4.668;2023-07-13T06:36:23;20.30;99.90
21602;DHT22;10963;50.934;4.668;2023-07-13T06:38:49;20.40;99.90
21602;DHT22;10963;50.934;4.668;2023-07-13T06:41:17;20.40;99.90
21602;DHT22;10963;50.934;4.668;2023-07-13T06:43:45;20.60;99.90
21602;DHT22;10963;50.934;4.668;2023-07-13T06:46:13;20.60;99.90
21602;DHT22;10963;50.934;4.668;2023-07-13T06:48:39;20.60;99.90
21602;DHT22;10963;50.934;4.668;2023-07-13T06:51:04;20.50;99.90
21602;DHT22;10963;50.934;4.668;2023-07-13T06:53:33;20.60;99.90
21602;DHT22;10963;50.934;4.668;2023-07-13T06:55:58;20.60;99.90
21602;DHT22;10963;50.934;4.668;2023-07-13T06:58:26;20.90;99.90
21602;DHT22;10963;50.934;4.668;2023-07-13T07:00:52;21.30;99.90
21602;DHT22;10963;50.934;4.668;2023-07-13T07:03:21;21.60;99.90
21602;DHT22;10963;50.934;4.668;2023-07-13T07:05:49;21.90;99.90
21602;DHT22;10963;50.934;4.668;2023-07-13T07:08:16;22.20;99.90
21602;DHT22;10963;50.934;4.668;2023-07-13T07:10:42;22.00;99.90
21602;DHT22;10963;50.934;4.668;2023-07-13T07:13:08;22.30;99.90
21602;DHT22;10963;50.934;4.668;2023-07-13T07:15:35;22.60;99.90
21602;DHT22;10963;50.934;4.668;2023-07-13T07:18:01;23.10;99.90
21602;DHT22;10963;50.934;4.668;2023-07-13T07:20:29;23.50;99.90
21602;DHT22;10963;50.934;4.668;2023-07-13T07:22:58;24.10;99.90
21602;DHT22;10963;50.934;4.668;2023-07-13T07:25:23;24.10;99.90
21602;DHT22;10963;50.934;4.668;2023-07-13T07:27:52;24.20;99.90
21602;DHT22;10963;50.934;4.668;2023-07-13T07:30:17;24.50;99.90
21602;DHT22;10963;50.934;4.668;2023-07-13T07:32:46;24.60;99.90
21602;DHT22;10963;50.934;4.668;2023-07-13T07:35:14;24.40;99.90
21602;DHT22;10963;50.934;4.668;2023-07-13T07:37:39;23.70;99.90
21602;DHT22;10963;50.934;4.668;2023-07-13T07:40:06;24.00;99.90
21602;DHT22;10963;50.934;4.668;2023-07-13T07:42:34;24.20;99.90
21602;DHT22;10963;50.934;4.668;2023-07-13T07:45:00;24.50;99.90
21602;DHT22;10963;50.934;4.668;2023-07-13T07:47:28;24.50;99.90
21602;DHT22;10963;50.934;4.668;2023-07-13T07:49:57;24.50;99.90
21602;DHT22;10963;50.934;4.668;2023-07-13T07:52:25;24.50;99.90
21602;DHT22;10963;50.934;4.668;2023-07-13T07:54:50;24.80;99.90
21602;DHT22;10963;50.934;4.668;2023-07-13T07:57:18;24.70;99.90
21602;DHT22;10963;50.934;4.668;2023-07-13T07:59:44;25.30;99.90
21602;DHT22;10963;50.934;4.668;2023-07-13T08:02:10;25.70;99.90
21602;DHT22;10963;50.934;4.668;2023-07-13T08:04:36;25.70;99.90
21602;DHT22;10963;50.934;4.668;2023-07-13T08:07:02;25.50;99.90
21602;DHT22;10963;50.934;4.668;2023-07-13T08:09:30;25.30;99.90
21602;DHT22;10963;50.934;4.668;2023-07-13T08:11:58;25.00;99.90
21602;DHT22;10963;50.934;4.668;2023-07-13T08:14:24;25.30;99.90
21602;DHT22;10963;50.934;4.668;2023-07-13T08:16:49;25.80;99.90
21602;DHT22;10963;50.934;4.668;2023-07-13T08:19:15;25.80;99.90
21602;DHT22;10963;50.934;4.668;2023-07-13T08:21:41;26.10;99.90
21602;DHT22;10963;50.934;4.668;2023-07-13T08:24:09;27.30;99.90
21602;DHT22;10963;50.934;4.668;2023-07-13T08:26:35;28.20;99.90
21602;DHT22;10963;50.934;4.668;2023-07-13T08:29:01;27.40;99.90
21602;DHT22;10963;50.934;4.668;2023-07-13T08:31:29;26.80;99.90
21602;DHT22;10963;50.934;4.668;2023-07-13T08:33:58;27.10;99.90
21602;DHT22;10963;50.934;4.668;2023-07-13T08:36:24;26.50;99.90
21602;DHT22;10963;50.934;4.668;2023-07-13T08:38:57;26.70;99.90
21602;DHT22;10963;50.934;4.668;2023-07-13T08:41:23;27.30;99.90
21602;DHT22;10963;50.934;4.668;2023-07-13T08:43:58;27.70;99.90
21602;DHT22;10963;50.934;4.668;2023-07-13T08:46:43;27.80;99.90
21602;DHT22;10963;50.934;4.668;2023-07-13T08:49:15;27.50;99.90
21602;DHT22;10963;50.934;4.668;2023-07-13T08:51:48;26.10;99.90
21602;DHT22;10963;50.934;4.668;2023-07-13T08:54:38;25.50;99.90
21602;DHT22;10963;50.934;4.668;2023-07-13T08:57:15;25.50;99.90
21602;DHT22;10963;50.934;4.668;2023-07-13T08:59:42;25.50;99.90
21602;DHT22;10963;50.934;4.668;2023-07-13T09:10:30;25.50;99.90
21602;DHT22;10963;50.934;4.668;2023-07-13T09:12:59;25.30;99.90
21602;DHT22;10963;50.934;4.668;2023-07-13T09:15:34;25.90;99.90
21602;DHT22;10963;50.934;4.668;2023-07-13T09:18:14;26.90;99.90
21602;DHT22;10963;50.934;4.668;2023-07-13T09:20:54;26.90;99.90
21602;DHT22;10963;50.934;4.668;2023-07-13T09:23:28;27.10;99.90
21602;DHT22;10963;50.934;4.668;2023-07-13T09:26:04;28.60;99.90
21602;DHT22;10963;50.934;4.668;2023-07-13T09:28:38;28.80;97.20
21602;DHT22;10963;50.934;4.668;2023-07-13T09:31:32;29.10;96.60
21602;DHT22;10963;50.934;4.668;2023-07-13T09:33:55;29.70;96.40
21602;DHT22;10963;50.934;4.668;2023-07-13T09:36:25;30.60;94.10
21602;DHT22;10963;50.934;4.668;2023-07-13T09:46:56;30.30;89.00
21602;DHT22;10963;50.934;4.668;2023-07-13T09:49:26;29.90;90.80
21602;DHT22;10963;50.934;4.668;2023-07-13T09:52:01;30.00;90.00
21602;DHT22;10963;50.934;4.668;2023-07-13T09:54:28;30.50;90.00
21602;DHT22;10963;50.934;4.668;2023-07-13T09:57:00;29.40;90.30
21602;DHT22;10963;50.934;4.668;2023-07-13T09:59:40;28.30;91.80
21602;DHT22;10963;50.934;4.668;2023-07-13T10:05:03;27.70;94.10
21602;DHT22;10963;50.934;4.668;2023-07-13T10:07:37;28.00;94.10
21602;DHT22;10963;50.934;4.668;2023-07-13T10:10:13;28.30;92.60
21602;DHT22;10963;50.934;4.668;2023-07-13T10:12:43;27.80;93.70
21602;DHT22;10963;50.934;4.668;2023-07-13T10:15:19;28.80;92.90
21602;DHT22;10963;50.934;4.668;2023-07-13T10:17:48;27.80;92.00
21602;DHT22;10963;50.934;4.668;2023-07-13T10:20:16;27.70;93.10
21602;DHT22;10963;50.934;4.668;2023-07-13T10:23:05;28.20;92.60
21602;DHT22;10963;50.934;4.668;2023-07-13T10:25:42;29.10;92.10
21602;DHT22;10963;50.934;4.668;2023-07-13T10:28:52;29.60;90.70
21602;DHT22;10963;50.934;4.668;2023-07-13T10:31:19;29.30;90.70
21602;DHT22;10963;50.934;4.668;2023-07-13T10:33:48;28.60;92.20
21602;DHT22;10963;50.934;4.668;2023-07-13T10:36:31;29.70;90.50
21602;DHT22;10963;50.934;4.668;2023-07-13T10:39:03;29.90;89.00
21602;DHT22;10963;50.934;4.668;2023-07-13T10:41:39;30.20;89.00
21602;DHT22;10963;50.934;4.668;2023-07-13T10:44:16;29.60;89.40
21602;DHT22;10963;50.934;4.668;2023-07-13T10:46:43;29.40;89.90
21602;DHT22;10963;50.934;4.668;2023-07-13T10:49:10;28.60;90.60
21602;DHT22;10963;50.934;4.668;2023-07-13T10:51:39;28.00;91.50
21602;DHT22;10963;50.934;4.668;2023-07-13T10:54:16;28.50;92.00
21602;DHT22;10963;50.934;4.668;2023-07-13T10:56:42;29.80;89.70
21602;DHT22;10963;50.934;4.668;2023-07-13T11:01:50;29.10;89.30
21602;DHT22;10963;50.934;4.668;2023-07-13T11:04:21;29.50;87.80
21602;DHT22;10963;50.934;4.668;2023-07-13T11:06:53;30.20;88.20
21602;DHT22;10963;50.934;4.668;2023-07-13T11:17:36;28.30;90.10
21602;DHT22;10963;50.934;4.668;2023-07-13T11:30:36;27.40;93.90
21602;DHT22;10963;50.934;4.668;2023-07-13T11:35:59;26.40;98.40
21602;DHT22;10963;50.934;4.668;2023-07-13T11:38:46;26.10;99.90
21602;DHT22;10963;50.934;4.668;2023-07-13T11:43:49;26.30;99.70
21602;DHT22;10963;50.934;4.668;2023-07-13T11:46:26;26.50;99.90
21602;DHT22;10963;50.934;4.668;2023-07-13T11:48:55;26.50;99.50
21602;DHT22;10963;50.934;4.668;2023-07-13T11:51:25;26.40;98.10
21602;DHT22;10963;50.934;4.668;2023-07-13T11:53:55;26.20;98.80
21602;DHT22;10963;50.934;4.668;2023-07-13T11:56:23;26.30;98.20
21602;DHT22;10963;50.934;4.668;2023-07-13T11:58:57;26.50;97.40
21602;DHT22;10963;50.934;4.668;2023-07-13T12:01:32;26.40;95.60
21602;DHT22;10963;50.934;4.668;2023-07-13T12:04:03;26.10;95.50
21602;DHT22;10963;50.934;4.668;2023-07-13T12:06:35;26.00;94.90
21602;DHT22;10963;50.934;4.668;2023-07-13T12:09:14;25.90;94.60
21602;DHT22;10963;50.934;4.668;2023-07-13T12:11:43;25.90;94.60
21602;DHT22;10963;50.934;4.668;2023-07-13T12:14:17;25.40;94.80
21602;DHT22;10963;50.934;4.668;2023-07-13T12:16:49;25.30;95.20
21602;DHT22;10963;50.934;4.668;2023-07-13T12:19:27;25.20;95.50
21602;DHT22;10963;50.934;4.668;2023-07-13T12:21:58;25.20;95.80
21602;DHT22;10963;50.934;4.668;2023-07-13T12:24:25;25.00;97.20
21602;DHT22;10963;50.934;4.668;2023-07-13T12:27:03;25.00;97.90
21602;DHT22;10963;50.934;4.668;2023-07-13T12:29:32;24.80;99.10
21602;DHT22;10963;50.934;4.668;2023-07-13T12:31:59;24.80;99.80
21602;DHT22;10963;50.934;4.668;2023-07-13T12:34:28;24.90;99.90
21602;DHT22;10963;50.934;4.668;2023-07-13T12:37:02;24.80;99.90
21602;DHT22;10963;50.934;4.668;2023-07-13T12:39:36;24.30;99.90
21602;DHT22;10963;50.934;4.668;2023-07-13T12:42:22;23.50;99.90
21602;DHT22;10963;50.934;4.668;2023-07-13T12:45:20;22.80;99.90
21602;DHT22;10963;50.934;4.668;2023-07-13T12:47:50;22.40;99.90
21602;DHT22;10963;50.934;4.668;2023-07-13T12:50:20;22.00;99.90
21602;DHT22;10963;50.934;4.668;2023-07-13T12:52:53;21.70;99.90
21602;DHT22;10963;50.934;4.668;2023-07-13T12:55:20;21.70;99.90
21602;DHT22;10963;50.934;4.668;2023-07-13T12:57:58;21.70;99.90
21602;DHT22;10963;50.934;4.668;2023-07-13T13:00:32;22.10;99.90
21602;DHT22;10963;50.934;4.668;2023-07-13T13:03:16;22.40;99.90
21602;DHT22;10963;50.934;4.668;2023-07-13T13:05:44;22.30;99.90
21602;DHT22;10963;50.934;4.668;2023-07-13T13:08:14;22.20;99.90
21602;DHT22;10963;50.934;4.668;2023-07-13T13:10:40;22.10;99.90
21602;DHT22;10963;50.934;4.668;2023-07-13T13:13:06;21.80;99.90
21602;DHT22;10963;50.934;4.668;2023-07-13T13:15:35;21.50;99.90
21602;DHT22;10963;50.934;4.668;2023-07-13T13:18:08;21.40;99.90
21602;DHT22;10963;50.934;4.668;2023-07-13T13:20:34;21.40;99.90
21602;DHT22;10963;50.934;4.668;2023-07-13T13:23:02;21.40;99.90
21602;DHT22;10963;50.934;4.668;2023-07-13T13:25:28;21.50;99.90
21602;DHT22;10963;50.934;4.668;2023-07-13T13:27:56;21.70;99.90
21602;DHT22;10963;50.934;4.668;2023-07-13T13:30:24;21.90;99.90
21602;DHT22;10963;50.934;4.668;2023-07-13T13:32:52;22.20;99.90
21602;DHT22;10963;50.934;4.668;2023-07-13T13:35:19;22.60;99.90
21602;DHT22;10963;50.934;4.668;2023-07-13T13:37:47;22.90;99.90
21602;DHT22;10963;50.934;4.668;2023-07-13T13:40:21;23.10;99.90
21602;DHT22;10963;50.934;4.668;2023-07-13T13:42:48;23.30;99.90
21602;DHT22;10963;50.934;4.668;2023-07-13T13:45:17;23.60;99.90
21602;DHT22;10963;50.934;4.668;2023-07-13T13:47:46;23.60;99.90
21602;DHT22;10963;50.934;4.668;2023-07-13T13:50:19;23.90;99.90
21602;DHT22;10963;50.934;4.668;2023-07-13T13:52:46;24.10;99.90
21602;DHT22;10963;50.934;4.668;2023-07-13T13:55:16;24.30;99.90
21602;DHT22;10963;50.934;4.668;2023-07-13T13:57:47;24.40;99.90
21602;DHT22;10963;50.934;4.668;2023-07-13T14:00:14;24.50;99.90
21602;DHT22;10963;50.934;4.668;2023-07-13T14:02:42;24.70;99.90
21602;DHT22;10963;50.934;4.668;2023-07-13T14:05:13;24.70;99.90
21602;DHT22;10963;50.934;4.668;2023-07-13T14:07:42;24.60;99.90
21602;DHT22;10963;50.934;4.668;2023-07-13T14:10:16;24.50;99.90
21602;DHT22;10963;50.934;4.668;2023-07-13T14:12:43;24.20;99.90
21602;DHT22;10963;50.934;4.668;2023-07-13T14:17:48;24.70;99.90
21602;DHT22;10963;50.934;4.668;2023-07-13T14:20:21;25.00;99.90
21602;DHT22;10963;50.934;4.668;2023-07-13T14:22:50;25.50;99.90
21602;DHT22;10963;50.934;4.668;2023-07-13T14:25:19;26.00;99.90
21602;DHT22;10963;50.934;4.668;2023-07-13T14:27:51;26.40;99.90
21602;DHT22;10963;50.934;4.668;2023-07-13T14:30:22;26.50;99.90
21602;DHT22;10963;50.934;4.668;2023-07-13T14:32:48;26.50;99.90
21602;DHT22;10963;50.934;4.668;2023-07-13T14:35:16;26.30;99.90
21602;DHT22;10963;50.934;4.668;2023-07-13T14:37:43;26.10;99.90
21602;DHT22;10963;50.934;4.668;2023-07-13T14:40:30;26.10;99.90
21602;DHT22;10963;50.934;4.668;2023-07-13T14:42:59;25.70;99.90
21602;DHT22;10963;50.934;4.668;2023-07-13T14:45:25;25.80;99.90
21602;DHT22;10963;50.934;4.668;2023-07-13T14:47:54;25.90;99.90
21602;DHT22;10963;50.934;4.668;2023-07-13T14:50:24;25.70;99.90
21602;DHT22;10963;50.934;4.668;2023-07-13T14:52:52;26.00;99.90
21602;DHT22;10963;50.934;4.668;2023-07-13T14:55:20;26.30;99.90
21602;DHT22;10963;50.934;4.668;2023-07-13T14:57:52;26.60;99.90
21602;DHT22;10963;50.934;4.668;2023-07-13T15:00:21;26.80;99.90
21602;DHT22;10963;50.934;4.668;2023-07-13T15:02:53;26.80;99.90
21602;DHT22;10963;50.934;4.668;2023-07-13T15:05:26;26.70;99.90
21602;DHT22;10963;50.934;4.668;2023-07-13T15:07:53;26.60;99.90
21602;DHT22;10963;50.934;4.668;2023-07-13T15:10:25;26.30;99.90
21602;DHT22;10963;50.934;4.668;2023-07-13T15:12:52;25.90;99.90
21602;DHT22;10963;50.934;4.668;2023-07-13T15:15:19;25.70;99.90
21602;DHT22;10963;50.934;4.668;2023-07-13T15:17:48;25.70;99.90
21602;DHT22;10963;50.934;4.668;2023-07-13T15:20:29;25.30;99.90
21602;DHT22;10963;50.934;4.668;2023-07-13T15:22:58;25.40;99.90
21602;DHT22;10963;50.934;4.668;2023-07-13T15:25:28;25.60;99.90
21602;DHT22;10963;50.934;4.668;2023-07-13T15:27:56;25.60;99.90
21602;DHT22;10963;50.934;4.668;2023-07-13T15:30:27;26.00;99.90
21602;DHT22;10963;50.934;4.668;2023-07-13T15:33:14;26.20;99.90
21602;DHT22;10963;50.934;4.668;2023-07-13T15:35:40;26.30;99.90
21602;DHT22;10963;50.934;4.668;2023-07-13T15:38:19;26.50;99.10
21602;DHT22;10963;50.934;4.668;2023-07-13T15:40:49;26.50;98.50
21602;DHT22;10963;50.934;4.668;2023-07-13T15:43:16;26.40;98.50
21602;DHT22;10963;50.934;4.668;2023-07-13T15:45:43;25.80;97.50
21602;DHT22;10963;50.934;4.668;2023-07-13T15:48:19;25.60;99.60
21602;DHT22;10963;50.934;4.668;2023-07-13T15:51:00;25.70;99.60
21602;DHT22;10963;50.934;4.668;2023-07-13T15:53:32;25.70;99.30
21602;DHT22;10963;50.934;4.668;2023-07-13T15:56:00;25.80;99.10
21602;DHT22;10963;50.934;4.668;2023-07-13T15:58:32;25.60;99.00
21602;DHT22;10963;50.934;4.668;2023-07-13T16:01:00;25.60;98.70
21602;DHT22;10963;50.934;4.668;2023-07-13T16:03:28;25.60;99.30
21602;DHT22;10963;50.934;4.668;2023-07-13T16:05:56;25.60;98.50
21602;DHT22;10963;50.934;4.668;2023-07-13T16:08:29;25.60;98.50
21602;DHT22;10963;50.934;4.668;2023-07-13T16:10:56;25.40;99.10
21602;DHT22;10963;50.934;4.668;2023-07-13T16:13:24;25.40;99.40
21602;DHT22;10963;50.934;4.668;2023-07-13T16:15:53;25.60;98.90
21602;DHT22;10963;50.934;4.668;2023-07-13T16:18:24;25.40;98.70
21602;DHT22;10963;50.934;4.668;2023-07-13T16:20:49;25.60;98.90
21602;DHT22;10963;50.934;4.668;2023-07-13T16:23:19;25.90;98.50
21602;DHT22;10963;50.934;4.668;2023-07-13T16:25:46;26.20;98.90
21602;DHT22;10963;50.934;4.668;2023-07-13T16:28:13;26.50;97.60
21602;DHT22;10963;50.934;4.668;2023-07-13T16:30:39;26.50;96.80
21602;DHT22;10963;50.934;4.668;2023-07-13T16:33:06;26.60;97.30
21602;DHT22;10963;50.934;4.668;2023-07-13T16:35:39;26.40;97.40
21602;DHT22;10963;50.934;4.668;2023-07-13T16:38:20;26.40;96.70